createdAt,value
2023-01-29T00:00:05.356Z,572.00
2023-01-29T00:00:35.479Z,573.00
2023-01-29T00:01:05.475Z,576.00
2023-01-29T00:01:35.784Z,578.00
2023-01-29T00:02:05.930Z,577.00
2023-01-29T00:02:35.719Z,577.00
2023-01-29T00:03:05.872Z,577.00
2023-01-29T00:03:35.841Z,576.00
2023-01-29T00:04:05.984Z,575.00
2023-01-29T00:04:35.962Z,575.00
2023-01-29T00:05:25.461Z,574.00
2023-01-29T00:05:36.097Z,575.00
2023-01-29T00:06:06.099Z,575.00
2023-01-29T00:06:36.087Z,574.00
2023-01-29T00:07:06.085Z,574.00
2023-01-29T00:07:36.073Z,575.00
2023-01-29T00:08:06.206Z,575.00
2023-01-29T00:08:36.312Z,577.00
2023-01-29T00:09:06.427Z,577.00
2023-01-29T00:09:36.421Z,574.00
2023-01-29T00:10:06.533Z,576.00
2023-01-29T00:10:36.534Z,577.00
2023-01-29T00:11:06.538Z,575.00
2023-01-29T00:11:36.644Z,573.00
2023-01-29T00:12:06.773Z,575.00
2023-01-29T00:12:36.767Z,573.00
2023-01-29T00:13:06.884Z,574.00
2023-01-29T00:13:37.003Z,574.00
2023-01-29T00:14:07.132Z,575.00
2023-01-29T00:14:37.255Z,576.00
2023-01-29T00:15:07.356Z,577.00
2023-01-29T00:15:37.477Z,576.00
2023-01-29T00:16:07.480Z,577.00
2023-01-29T00:16:37.500Z,577.00
2023-01-29T00:17:07.604Z,576.00
2023-01-29T00:17:37.597Z,574.00
2023-01-29T00:18:07.712Z,575.00
2023-01-29T00:18:37.826Z,574.00
2023-01-29T00:19:07.954Z,573.00
2023-01-29T00:19:38.071Z,574.00
2023-01-29T00:20:08.070Z,576.00
2023-01-29T00:20:38.183Z,577.00
2023-01-29T00:21:08.175Z,578.00
2023-01-29T00:21:38.166Z,580.00
2023-01-29T00:22:08.285Z,579.00
2023-01-29T00:22:38.280Z,578.00
2023-01-29T00:23:08.274Z,576.00
2023-01-29T00:23:38.383Z,574.00
2023-01-29T00:24:08.562Z,573.00
2023-01-29T00:24:38.578Z,573.00
2023-01-29T00:25:08.697Z,572.00
2023-01-29T00:25:39.149Z,573.00
2023-01-29T00:26:08.897Z,575.00
2023-01-29T00:26:38.891Z,576.00
2023-01-29T00:27:08.889Z,575.00
2023-01-29T00:27:38.884Z,575.00
2023-01-29T00:28:09.005Z,578.00
2023-01-29T00:28:39.126Z,580.00
2023-01-29T00:29:09.129Z,579.00
2023-01-29T00:29:39.120Z,577.00
2023-01-29T00:30:09.265Z,577.00
2023-01-29T00:30:39.673Z,578.00
2023-01-29T00:31:09.385Z,577.00
2023-01-29T00:31:39.635Z,577.00
2023-01-29T00:32:09.673Z,577.00
2023-01-29T00:32:39.487Z,578.00
2023-01-29T00:33:09.579Z,578.00
2023-01-29T00:33:39.704Z,577.00
2023-01-29T00:34:09.698Z,577.00
2023-01-29T00:34:39.694Z,579.00
2023-01-29T00:35:09.811Z,580.00
2023-01-29T00:35:39.924Z,580.00
2023-01-29T00:36:09.936Z,580.00
2023-01-29T00:36:39.906Z,580.00
2023-01-29T00:37:10.021Z,581.00
2023-01-29T00:37:40.016Z,581.00
2023-01-29T00:38:10.015Z,580.00
2023-01-29T00:38:40.131Z,580.00
2023-01-29T00:39:10.120Z,579.00
2023-01-29T00:39:47.913Z,578.00
2023-01-29T00:40:10.135Z,578.00
2023-01-29T00:40:40.138Z,579.00
2023-01-29T00:41:10.135Z,580.00
2023-01-29T00:41:40.257Z,579.00
2023-01-29T00:42:10.371Z,579.00
2023-01-29T00:42:40.488Z,577.00
2023-01-29T00:43:10.617Z,578.00
2023-01-29T00:43:40.720Z,576.00
2023-01-29T00:44:10.849Z,577.00
2023-01-29T00:44:40.840Z,577.00
2023-01-29T00:45:10.960Z,574.00
2023-01-29T00:45:40.955Z,574.00
2023-01-29T00:46:11.028Z,575.00
2023-01-29T00:46:41.173Z,575.00
2023-01-29T00:47:11.044Z,577.00
2023-01-29T00:47:41.043Z,577.00
2023-01-29T00:48:11.059Z,576.00
2023-01-29T00:48:41.041Z,578.00
2023-01-29T00:49:11.079Z,580.00
2023-01-29T00:49:41.101Z,580.00
2023-01-29T00:50:11.144Z,579.00
2023-01-29T00:50:41.170Z,580.00
2023-01-29T00:51:11.199Z,580.00
2023-01-29T00:51:41.239Z,580.00
2023-01-29T00:52:11.272Z,582.00
2023-01-29T00:52:41.333Z,581.00
2023-01-29T00:53:11.357Z,580.00
2023-01-29T00:53:41.387Z,581.00
2023-01-29T00:54:11.415Z,582.00
2023-01-29T00:54:41.457Z,581.00
2023-01-29T00:55:11.493Z,580.00
2023-01-29T00:55:41.520Z,581.00
2023-01-29T00:56:11.556Z,581.00
2023-01-29T00:56:41.582Z,581.00
2023-01-29T00:57:11.634Z,581.00
2023-01-29T00:57:41.647Z,582.00
2023-01-29T00:58:11.669Z,586.00
2023-01-29T00:58:41.701Z,585.00
2023-01-29T00:59:11.746Z,584.00
2023-01-29T00:59:41.772Z,585.00
2023-01-29T01:00:11.813Z,584.00
2023-01-29T01:00:41.904Z,582.00
2023-01-29T01:01:11.968Z,582.00
2023-01-29T01:01:42.009Z,582.00
2023-01-29T01:02:12.121Z,580.00
2023-01-29T01:02:42.140Z,581.00
2023-01-29T01:03:12.156Z,582.00
2023-01-29T01:03:42.220Z,581.00
2023-01-29T01:04:12.241Z,581.00
2023-01-29T01:04:42.270Z,579.00
2023-01-29T01:05:12.296Z,579.00
2023-01-29T01:05:42.339Z,580.00
2023-01-29T01:06:12.375Z,578.00
2023-01-29T01:06:42.411Z,578.00
2023-01-29T01:07:48.482Z,580.00
2023-01-29T01:08:18.559Z,584.00
2023-01-29T01:08:48.644Z,583.00
2023-01-29T01:09:18.724Z,584.00
2023-01-29T01:09:48.808Z,585.00
2023-01-29T01:10:19.039Z,583.00
2023-01-29T01:10:48.992Z,585.00
2023-01-29T01:11:19.063Z,585.00
2023-01-29T01:11:49.148Z,583.00
2023-01-29T01:12:19.226Z,583.00
2023-01-29T01:12:49.310Z,579.00
2023-01-29T01:13:19.385Z,579.00
2023-01-29T01:13:49.469Z,579.00
2023-01-29T01:14:19.551Z,577.00
2023-01-29T01:14:49.648Z,576.00
2023-01-29T01:15:19.719Z,576.00
2023-01-29T01:15:49.801Z,577.00
2023-01-29T01:16:19.906Z,576.00
2023-01-29T01:16:49.983Z,577.00
2023-01-29T01:17:20.068Z,578.00
2023-01-29T01:17:50.074Z,578.00
2023-01-29T01:18:20.063Z,579.00
2023-01-29T01:18:50.088Z,576.00
2023-01-29T01:19:20.063Z,576.00
2023-01-29T01:19:50.179Z,576.00
2023-01-29T01:20:20.306Z,577.00
2023-01-29T01:20:50.292Z,576.00
2023-01-29T01:21:20.287Z,577.00
2023-01-29T01:21:50.279Z,578.00
2023-01-29T01:22:20.400Z,577.00
2023-01-29T01:22:50.393Z,576.00
2023-01-29T01:23:20.393Z,577.00
2023-01-29T01:23:50.531Z,577.00
2023-01-29T01:24:20.693Z,577.00
2023-01-29T01:24:50.577Z,578.00
2023-01-29T01:25:20.676Z,579.00
2023-01-29T01:25:50.688Z,577.00
2023-01-29T01:26:20.681Z,579.00
2023-01-29T01:26:50.672Z,580.00
2023-01-29T01:27:20.799Z,579.00
2023-01-29T01:27:50.908Z,579.00
2023-01-29T01:28:21.028Z,579.00
2023-01-29T01:28:51.046Z,580.00
2023-01-29T01:29:21.048Z,582.00
2023-01-29T01:29:51.047Z,583.00
2023-01-29T01:30:21.051Z,581.00
2023-01-29T01:30:51.100Z,580.00
2023-01-29T01:31:21.146Z,582.00
2023-01-29T01:31:51.169Z,580.00
2023-01-29T01:32:21.170Z,579.00
2023-01-29T01:32:51.163Z,579.00
2023-01-29T01:33:21.279Z,578.00
2023-01-29T01:33:51.280Z,579.00
2023-01-29T01:34:21.298Z,580.00
2023-01-29T01:34:51.392Z,579.00
2023-01-29T01:35:21.511Z,578.00
2023-01-29T01:35:51.517Z,579.00
2023-01-29T01:36:21.504Z,580.00
2023-01-29T01:36:51.502Z,582.00
2023-01-29T01:37:21.635Z,582.00
2023-01-29T01:37:51.733Z,581.00
2023-01-29T01:38:21.860Z,582.00
2023-01-29T01:38:51.860Z,583.00
2023-01-29T01:39:21.858Z,581.00
2023-01-29T01:39:51.974Z,581.00
2023-01-29T01:40:21.976Z,581.00
2023-01-29T01:40:51.963Z,580.00
2023-01-29T01:41:22.094Z,580.00
2023-01-29T01:41:52.100Z,582.00
2023-01-29T01:42:22.213Z,585.00
2023-01-29T01:42:52.220Z,586.00
2023-01-29T01:43:22.320Z,587.00
2023-01-29T01:43:52.326Z,586.00
2023-01-29T01:44:22.323Z,586.00
2023-01-29T01:44:52.470Z,587.00
2023-01-29T01:45:22.451Z,589.00
2023-01-29T01:45:52.504Z,588.00
2023-01-29T01:46:22.476Z,588.00
2023-01-29T01:46:52.470Z,586.00
2023-01-29T01:47:22.477Z,585.00
2023-01-29T01:47:52.594Z,583.00
2023-01-29T01:48:22.718Z,583.00
2023-01-29T01:48:52.833Z,584.00
2023-01-29T01:49:22.858Z,585.00
2023-01-29T01:49:52.829Z,586.00
2023-01-29T01:50:22.953Z,587.00
2023-01-29T01:50:52.976Z,588.00
2023-01-29T01:51:22.970Z,588.00
2023-01-29T01:51:53.087Z,588.00
2023-01-29T01:52:23.205Z,587.00
2023-01-29T01:52:53.321Z,587.00
2023-01-29T01:53:23.309Z,587.00
2023-01-29T01:53:53.427Z,587.00
2023-01-29T01:54:23.422Z,588.00
2023-01-29T01:54:53.422Z,588.00
2023-01-29T01:55:23.539Z,585.00
2023-01-29T01:55:53.722Z,586.00
2023-01-29T01:56:23.716Z,586.00
2023-01-29T01:56:53.829Z,585.00
2023-01-29T01:57:23.827Z,584.00
2023-01-29T01:57:53.824Z,585.00
2023-01-29T01:58:23.941Z,588.00
2023-01-29T01:58:53.955Z,588.00
2023-01-29T01:59:23.949Z,588.00
2023-01-29T01:59:54.063Z,588.00
2023-01-29T02:00:24.059Z,589.00
2023-01-29T02:00:54.221Z,589.00
2023-01-29T02:01:25.775Z,589.00
2023-01-29T02:01:54.261Z,589.00
2023-01-29T02:02:24.340Z,589.00
2023-01-29T02:02:54.349Z,588.00
2023-01-29T02:03:24.483Z,589.00
2023-01-29T02:03:54.474Z,588.00
2023-01-29T02:04:24.478Z,588.00
2023-01-29T02:04:54.487Z,587.00
2023-01-29T02:05:24.590Z,588.00
2023-01-29T02:05:54.602Z,590.00
2023-01-29T02:06:24.605Z,589.00
2023-01-29T02:06:54.714Z,589.00
2023-01-29T02:07:24.824Z,589.00
2023-01-29T02:07:54.912Z,587.00
2023-01-29T02:08:24.994Z,585.00
2023-01-29T02:08:55.072Z,584.00
2023-01-29T02:09:25.154Z,583.00
2023-01-29T02:09:55.235Z,583.00
2023-01-29T02:10:25.314Z,582.00
2023-01-29T02:10:55.405Z,583.00
2023-01-29T02:11:25.493Z,580.00
2023-01-29T02:11:55.573Z,579.00
2023-01-29T02:12:25.660Z,579.00
2023-01-29T02:12:55.742Z,579.00
2023-01-29T02:13:25.816Z,579.00
2023-01-29T02:13:55.907Z,579.00
2023-01-29T02:14:25.985Z,579.00
2023-01-29T02:14:56.064Z,579.00
2023-01-29T02:15:26.146Z,580.00
2023-01-29T02:15:56.239Z,579.00
2023-01-29T02:16:26.334Z,579.00
2023-01-29T02:16:56.410Z,577.00
2023-01-29T02:17:26.559Z,576.00
2023-01-29T02:17:56.569Z,575.00
2023-01-29T02:18:26.684Z,575.00
2023-01-29T02:18:56.699Z,577.00
2023-01-29T02:19:26.695Z,578.00
2023-01-29T02:19:56.691Z,578.00
2023-01-29T02:20:26.743Z,578.00
2023-01-29T02:20:56.706Z,580.00
2023-01-29T02:21:26.702Z,582.00
2023-01-29T02:21:56.698Z,582.00
2023-01-29T02:22:26.814Z,583.00
2023-01-29T02:22:56.813Z,583.00
2023-01-29T02:23:26.810Z,582.00
2023-01-29T02:23:57.090Z,583.00
2023-01-29T02:24:27.028Z,583.00
2023-01-29T02:24:57.042Z,584.00
2023-01-29T02:25:27.009Z,584.00
2023-01-29T02:25:57.132Z,584.00
2023-01-29T02:26:27.143Z,583.00
2023-01-29T02:26:57.125Z,583.00
2023-01-29T02:27:27.116Z,584.00
2023-01-29T02:27:57.234Z,583.00
2023-01-29T02:28:27.240Z,583.00
2023-01-29T02:28:57.243Z,581.00
2023-01-29T02:29:27.242Z,581.00
2023-01-29T02:29:57.224Z,581.00
2023-01-29T02:30:27.347Z,581.00
2023-01-29T02:30:57.523Z,579.00
2023-01-29T02:31:27.602Z,578.00
2023-01-29T02:31:57.670Z,579.00
2023-01-29T02:32:27.643Z,581.00
2023-01-29T02:32:57.639Z,582.00
2023-01-29T02:33:27.637Z,579.00
2023-01-29T02:33:57.637Z,578.00
2023-01-29T02:34:27.632Z,578.00
2023-01-29T02:34:57.757Z,580.00
2023-01-29T02:35:27.755Z,578.00
2023-01-29T02:35:57.770Z,577.00
2023-01-29T02:36:27.876Z,576.00
2023-01-29T02:36:57.864Z,576.00
2023-01-29T02:37:27.988Z,575.00
2023-01-29T02:37:58.106Z,575.00
2023-01-29T02:38:28.102Z,575.00
2023-01-29T02:38:58.096Z,575.00
2023-01-29T02:39:28.220Z,576.00
2023-01-29T02:39:58.214Z,577.00
2023-01-29T02:40:28.333Z,577.00
2023-01-29T02:40:58.451Z,578.00
2023-01-29T02:41:28.464Z,579.00
2023-01-29T02:41:58.454Z,580.00
2023-01-29T02:42:28.575Z,582.00
2023-01-29T02:42:58.691Z,582.00
2023-01-29T02:43:28.692Z,583.00
2023-01-29T02:43:58.704Z,585.00
2023-01-29T02:44:28.700Z,585.00
2023-01-29T02:44:58.828Z,585.00
2023-01-29T02:45:28.816Z,584.00
2023-01-29T02:45:58.914Z,585.00
2023-01-29T02:46:28.901Z,586.00
2023-01-29T02:46:58.910Z,585.00
2023-01-29T02:47:29.010Z,586.00
2023-01-29T02:47:59.155Z,586.00
2023-01-29T02:48:29.128Z,586.00
2023-01-29T02:48:59.147Z,586.00
2023-01-29T02:49:29.138Z,587.00
2023-01-29T02:49:59.251Z,587.00
2023-01-29T02:50:29.375Z,588.00
2023-01-29T02:50:59.522Z,586.00
2023-01-29T02:51:29.608Z,586.00
2023-01-29T02:51:59.746Z,587.00
2023-01-29T02:52:29.725Z,588.00
2023-01-29T02:52:59.843Z,588.00
2023-01-29T02:53:29.836Z,588.00
2023-01-29T02:53:59.956Z,589.00
2023-01-29T02:54:29.958Z,588.00
2023-01-29T02:54:59.972Z,587.00
2023-01-29T02:55:29.945Z,586.00
2023-01-29T02:55:59.951Z,585.00
2023-01-29T02:56:29.978Z,585.00
2023-01-29T02:56:59.965Z,585.00
2023-01-29T02:57:29.976Z,586.00
2023-01-29T02:57:59.974Z,587.00
2023-01-29T02:58:30.100Z,584.00
2023-01-29T02:59:00.209Z,585.00
2023-01-29T02:59:30.336Z,585.00
2023-01-29T03:00:00.446Z,584.00
2023-01-29T03:00:30.445Z,582.00
2023-01-29T03:01:00.604Z,582.00
2023-01-29T03:01:30.612Z,582.00
2023-01-29T03:02:00.629Z,581.00
2023-01-29T03:02:30.644Z,580.00
2023-01-29T03:03:00.610Z,579.00
2023-01-29T03:03:30.606Z,577.00
2023-01-29T03:04:00.616Z,578.00
2023-01-29T03:04:30.722Z,576.00
2023-01-29T03:05:00.840Z,576.00
2023-01-29T03:05:30.837Z,577.00
2023-01-29T03:06:00.956Z,578.00
2023-01-29T03:06:31.009Z,578.00
2023-01-29T03:07:00.978Z,580.00
2023-01-29T03:07:31.074Z,579.00
2023-01-29T03:08:01.156Z,580.00
2023-01-29T03:08:31.241Z,580.00
2023-01-29T03:09:01.328Z,580.00
2023-01-29T03:09:31.414Z,579.00
2023-01-29T03:10:01.602Z,581.00
2023-01-29T03:10:31.542Z,580.00
2023-01-29T03:11:01.622Z,580.00
2023-01-29T03:11:31.709Z,581.00
2023-01-29T03:12:01.813Z,582.00
2023-01-29T03:12:31.896Z,580.00
2023-01-29T03:13:01.976Z,579.00
2023-01-29T03:13:32.055Z,578.00
2023-01-29T03:14:02.149Z,580.00
2023-01-29T03:14:32.237Z,580.00
2023-01-29T03:15:02.320Z,581.00
2023-01-29T03:15:32.410Z,581.00
2023-01-29T03:16:02.505Z,581.00
2023-01-29T03:16:32.604Z,580.00
2023-01-29T03:17:02.595Z,581.00
2023-01-29T03:17:32.707Z,582.00
2023-01-29T03:18:02.811Z,584.00
2023-01-29T03:18:32.809Z,585.00
2023-01-29T03:19:02.807Z,586.00
2023-01-29T03:19:32.807Z,587.00
2023-01-29T03:20:02.925Z,587.00
2023-01-29T03:20:32.916Z,587.00
2023-01-29T03:21:02.918Z,588.00
2023-01-29T03:21:33.032Z,589.00
2023-01-29T03:22:03.059Z,590.00
2023-01-29T03:22:33.028Z,589.00
2023-01-29T03:23:03.145Z,588.00
2023-01-29T03:23:33.262Z,590.00
2023-01-29T03:24:03.288Z,590.00
2023-01-29T03:24:33.382Z,592.00
2023-01-29T03:25:03.532Z,594.00
2023-01-29T03:25:33.503Z,594.00
2023-01-29T03:26:03.615Z,593.00
2023-01-29T03:26:33.740Z,593.00
2023-01-29T03:27:03.738Z,594.00
2023-01-29T03:27:33.732Z,592.00
2023-01-29T03:28:03.840Z,592.00
2023-01-29T03:28:33.840Z,591.00
2023-01-29T03:29:03.961Z,592.00
2023-01-29T03:29:34.070Z,593.00
2023-01-29T03:30:04.074Z,593.00
2023-01-29T03:30:34.080Z,592.00
2023-01-29T03:31:04.207Z,591.00
2023-01-29T03:31:34.316Z,590.00
2023-01-29T03:32:04.334Z,591.00
2023-01-29T03:32:34.212Z,592.00
2023-01-29T03:33:04.331Z,592.00
2023-01-29T03:33:34.324Z,592.00
2023-01-29T03:34:04.445Z,591.00
2023-01-29T03:34:34.463Z,591.00
2023-01-29T03:35:04.566Z,591.00
2023-01-29T03:35:34.557Z,592.00
2023-01-29T03:36:04.677Z,593.00
2023-01-29T03:36:34.673Z,590.00
2023-01-29T03:37:04.790Z,589.00
2023-01-29T03:37:34.843Z,587.00
2023-01-29T03:38:04.814Z,587.00
2023-01-29T03:38:34.810Z,587.00
2023-01-29T03:39:04.938Z,587.00
2023-01-29T03:39:34.925Z,588.00
2023-01-29T03:40:05.043Z,590.00
2023-01-29T03:40:35.037Z,590.00
2023-01-29T03:41:05.158Z,588.00
2023-01-29T03:41:35.269Z,588.00
2023-01-29T03:42:05.273Z,586.00
2023-01-29T03:42:35.269Z,586.00
2023-01-29T03:43:05.379Z,586.00
2023-01-29T03:43:35.500Z,586.00
2023-01-29T03:44:05.620Z,586.00
2023-01-29T03:44:35.635Z,584.00
2023-01-29T03:45:05.626Z,584.00
2023-01-29T03:45:35.843Z,584.00
2023-01-29T03:46:05.976Z,584.00
2023-01-29T03:46:35.862Z,584.00
2023-01-29T03:47:05.973Z,583.00
2023-01-29T03:47:36.091Z,584.00
2023-01-29T03:48:06.207Z,582.00
2023-01-29T03:48:36.207Z,581.00
2023-01-29T03:49:06.322Z,582.00
2023-01-29T03:49:36.320Z,582.00
2023-01-29T03:50:06.322Z,581.00
2023-01-29T03:50:36.325Z,582.00
2023-01-29T03:51:06.441Z,580.00
2023-01-29T03:51:36.437Z,581.00
2023-01-29T03:52:06.564Z,581.00
2023-01-29T03:52:36.592Z,582.00
2023-01-29T03:53:06.586Z,582.00
2023-01-29T03:53:36.582Z,582.00
2023-01-29T03:54:06.593Z,583.00
2023-01-29T03:54:36.694Z,581.00
2023-01-29T03:55:06.872Z,581.00
2023-01-29T03:55:36.935Z,582.00
2023-01-29T03:56:06.964Z,581.00
2023-01-29T03:56:36.959Z,579.00
2023-01-29T03:57:06.961Z,578.00
2023-01-29T03:57:37.091Z,576.00
2023-01-29T03:58:07.079Z,577.00
2023-01-29T03:58:37.075Z,577.00
2023-01-29T03:59:07.196Z,578.00
2023-01-29T03:59:37.189Z,578.00
2023-01-29T04:00:07.190Z,578.00
2023-01-29T04:00:37.304Z,577.00
2023-01-29T04:01:07.344Z,576.00
2023-01-29T04:01:37.382Z,577.00
2023-01-29T04:02:07.361Z,577.00
2023-01-29T04:02:37.353Z,577.00
2023-01-29T04:03:07.494Z,578.00
2023-01-29T04:03:37.587Z,580.00
2023-01-29T04:04:07.599Z,580.00
2023-01-29T04:04:37.582Z,584.00
2023-01-29T04:05:07.575Z,583.00
2023-01-29T04:05:37.568Z,583.00
2023-01-29T04:06:07.688Z,582.00
2023-01-29T04:06:37.691Z,583.00
2023-01-29T04:07:07.686Z,583.00
2023-01-29T04:07:37.775Z,583.00
2023-01-29T04:08:07.856Z,583.00
2023-01-29T04:08:37.938Z,584.00
2023-01-29T04:09:08.020Z,585.00
2023-01-29T04:09:38.101Z,584.00
2023-01-29T04:10:08.181Z,584.00
2023-01-29T04:10:38.266Z,583.00
2023-01-29T04:11:08.342Z,581.00
2023-01-29T04:11:38.448Z,583.00
2023-01-29T04:12:08.500Z,582.00
2023-01-29T04:12:38.587Z,582.00
2023-01-29T04:13:08.660Z,582.00
2023-01-29T04:13:38.740Z,582.00
2023-01-29T04:14:08.827Z,584.00
2023-01-29T04:14:38.921Z,582.00
2023-01-29T04:15:08.987Z,584.00
2023-01-29T04:15:39.076Z,584.00
2023-01-29T04:16:09.234Z,584.00
2023-01-29T04:16:39.230Z,585.00
2023-01-29T04:17:09.179Z,586.00
2023-01-29T04:17:39.294Z,586.00
2023-01-29T04:18:09.413Z,586.00
2023-01-29T04:18:39.530Z,586.00
2023-01-29T04:19:09.658Z,587.00
2023-01-29T04:19:39.648Z,587.00
2023-01-29T04:20:09.764Z,587.00
2023-01-29T04:20:39.879Z,587.00
2023-01-29T04:21:09.999Z,587.00
2023-01-29T04:21:39.996Z,586.00
2023-01-29T04:22:10.116Z,587.00
2023-01-29T04:22:40.229Z,588.00
2023-01-29T04:23:10.347Z,589.00
2023-01-29T04:23:40.463Z,589.00
2023-01-29T04:24:10.627Z,590.00
2023-01-29T04:24:40.606Z,589.00
2023-01-29T04:25:10.732Z,586.00
2023-01-29T04:25:40.835Z,584.00
2023-01-29T04:26:10.834Z,582.00
2023-01-29T04:26:40.830Z,581.00
2023-01-29T04:27:10.948Z,581.00
2023-01-29T04:27:41.069Z,581.00
2023-01-29T04:28:11.072Z,582.00
2023-01-29T04:28:41.184Z,582.00
2023-01-29T04:29:11.305Z,581.00
2023-01-29T04:29:41.299Z,580.00
2023-01-29T04:30:11.416Z,581.00
2023-01-29T04:30:41.564Z,582.00
2023-01-29T04:31:11.640Z,582.00
2023-01-29T04:31:41.798Z,583.00
2023-01-29T04:32:11.654Z,583.00
2023-01-29T04:32:41.771Z,582.00
2023-01-29T04:33:11.893Z,580.00
2023-01-29T04:33:41.887Z,580.00
2023-01-29T04:34:12.007Z,579.00
2023-01-29T04:34:41.997Z,579.00
2023-01-29T04:35:12.113Z,579.00
2023-01-29T04:35:42.129Z,580.00
2023-01-29T04:36:12.226Z,580.00
2023-01-29T04:36:42.221Z,580.00
2023-01-29T04:37:12.341Z,580.00
2023-01-29T04:37:42.454Z,582.00
2023-01-29T04:38:12.600Z,583.00
2023-01-29T04:38:42.688Z,583.00
2023-01-29T04:39:12.688Z,583.00
2023-01-29T04:39:42.688Z,583.00
2023-01-29T04:40:12.801Z,583.00
2023-01-29T04:40:42.791Z,581.00
2023-01-29T04:41:12.919Z,581.00
2023-01-29T04:41:42.906Z,579.00
2023-01-29T04:42:13.026Z,580.00
2023-01-29T04:42:43.139Z,580.00
2023-01-29T04:43:13.270Z,580.00
2023-01-29T04:43:43.378Z,582.00
2023-01-29T04:44:13.396Z,582.00
2023-01-29T04:44:43.388Z,582.00
2023-01-29T04:45:13.526Z,582.00
2023-01-29T04:45:43.501Z,582.00
2023-01-29T04:46:13.618Z,583.00
2023-01-29T04:46:43.741Z,583.00
2023-01-29T04:47:13.789Z,582.00
2023-01-29T04:47:43.836Z,582.00
2023-01-29T04:48:13.867Z,582.00
2023-01-29T04:48:43.995Z,583.00
2023-01-29T04:49:13.984Z,582.00
2023-01-29T04:49:43.980Z,583.00
2023-01-29T04:50:14.554Z,583.00
2023-01-29T04:50:44.136Z,583.00
2023-01-29T04:51:14.168Z,582.00
2023-01-29T04:51:44.275Z,582.00
2023-01-29T04:52:14.408Z,583.00
2023-01-29T04:52:44.384Z,584.00
2023-01-29T04:53:14.376Z,582.00
2023-01-29T04:53:44.494Z,580.00
2023-01-29T04:54:14.489Z,579.00
2023-01-29T04:54:44.506Z,577.00
2023-01-29T04:55:14.631Z,577.00
2023-01-29T04:55:44.742Z,578.00
2023-01-29T04:56:14.742Z,579.00
2023-01-29T04:56:44.864Z,577.00
2023-01-29T04:57:14.974Z,576.00
2023-01-29T04:57:45.097Z,574.00
2023-01-29T04:58:15.204Z,575.00
2023-01-29T04:58:45.341Z,577.00
2023-01-29T04:59:15.342Z,578.00
2023-01-29T04:59:45.342Z,579.00
2023-01-29T05:00:15.906Z,577.00
2023-01-29T05:00:45.448Z,578.00
2023-01-29T05:01:15.443Z,578.00
2023-01-29T05:01:45.583Z,578.00
2023-01-29T05:02:15.455Z,577.00
2023-01-29T05:02:45.554Z,578.00
2023-01-29T05:03:15.445Z,579.00
2023-01-29T05:03:45.459Z,578.00
2023-01-29T05:04:15.445Z,577.00
2023-01-29T05:04:45.555Z,578.00
2023-01-29T05:05:15.552Z,577.00
2023-01-29T05:05:45.552Z,577.00
2023-01-29T05:06:15.662Z,578.00
2023-01-29T05:06:45.657Z,579.00
2023-01-29T05:07:15.652Z,580.00
2023-01-29T05:07:45.731Z,581.00
2023-01-29T05:08:15.816Z,582.00
2023-01-29T05:08:45.907Z,583.00
2023-01-29T05:09:15.990Z,582.00
2023-01-29T05:09:46.098Z,582.00
2023-01-29T05:10:16.516Z,582.00
2023-01-29T05:10:46.248Z,584.00
2023-01-29T05:11:16.335Z,582.00
2023-01-29T05:11:46.447Z,581.00
2023-01-29T05:12:16.517Z,578.00
2023-01-29T05:12:46.653Z,578.00
2023-01-29T05:13:16.766Z,579.00
2023-01-29T05:13:46.756Z,579.00
2023-01-29T05:14:16.837Z,579.00
2023-01-29T05:14:46.915Z,580.00
2023-01-29T05:15:17.016Z,580.00
2023-01-29T05:15:47.176Z,579.00
2023-01-29T05:16:17.164Z,579.00
2023-01-29T05:16:47.263Z,578.00
2023-01-29T05:17:17.342Z,577.00
2023-01-29T05:17:47.484Z,578.00
2023-01-29T05:18:17.504Z,576.00
2023-01-29T05:18:47.522Z,575.00
2023-01-29T05:19:17.489Z,576.00
2023-01-29T05:19:47.606Z,576.00
2023-01-29T05:20:18.133Z,575.00
2023-01-29T05:20:47.679Z,574.00
2023-01-29T05:21:17.799Z,574.00
2023-01-29T05:21:47.803Z,577.00
2023-01-29T05:22:17.811Z,578.00
2023-01-29T05:22:47.784Z,576.00
2023-01-29T05:23:17.783Z,574.00
2023-01-29T05:23:47.918Z,573.00
2023-01-29T05:24:18.002Z,571.00
2023-01-29T05:24:47.992Z,570.00
2023-01-29T05:25:17.988Z,569.00
2023-01-29T05:25:48.112Z,571.00
2023-01-29T05:26:18.119Z,572.00
2023-01-29T05:26:48.109Z,571.00
2023-01-29T05:27:18.115Z,571.00
2023-01-29T05:27:48.224Z,572.00
2023-01-29T05:28:18.214Z,571.00
2023-01-29T05:28:48.341Z,570.00
2023-01-29T05:29:18.335Z,570.00
2023-01-29T05:29:48.338Z,571.00
2023-01-29T05:30:18.743Z,569.00
2023-01-29T05:30:48.438Z,571.00
2023-01-29T05:31:18.526Z,573.00
2023-01-29T05:31:48.585Z,574.00
2023-01-29T05:32:18.603Z,573.00
2023-01-29T05:32:48.720Z,573.00
2023-01-29T05:33:18.728Z,573.00
2023-01-29T05:33:48.832Z,574.00
2023-01-29T05:34:18.831Z,575.00
2023-01-29T05:34:48.828Z,576.00
2023-01-29T05:35:18.832Z,578.00
2023-01-29T05:35:48.942Z,578.00
2023-01-29T05:36:18.939Z,576.00
2023-01-29T05:36:49.059Z,573.00
2023-01-29T05:37:19.197Z,573.00
2023-01-29T05:37:49.199Z,573.00
2023-01-29T05:38:19.203Z,574.00
2023-01-29T05:38:49.308Z,574.00
2023-01-29T05:39:19.301Z,575.00
2023-01-29T05:39:49.311Z,576.00
2023-01-29T05:40:19.447Z,579.00
2023-01-29T05:40:49.339Z,580.00
2023-01-29T05:41:19.331Z,580.00
2023-01-29T05:41:49.452Z,580.00
2023-01-29T05:42:19.459Z,580.00
2023-01-29T05:42:49.452Z,583.00
2023-01-29T05:43:19.569Z,580.00
2023-01-29T05:43:49.683Z,581.00
2023-01-29T05:44:19.680Z,581.00
2023-01-29T05:44:49.716Z,582.00
2023-01-29T05:45:19.701Z,583.00
2023-01-29T05:45:49.698Z,583.00
2023-01-29T05:46:19.728Z,583.00
2023-01-29T05:46:49.796Z,582.00
2023-01-29T05:47:19.812Z,582.00
2023-01-29T05:47:49.957Z,582.00
2023-01-29T05:48:20.053Z,580.00
2023-01-29T05:48:50.057Z,579.00
2023-01-29T05:49:20.060Z,576.00
2023-01-29T05:49:50.061Z,574.00
2023-01-29T05:50:20.053Z,575.00
2023-01-29T05:50:50.059Z,574.00
2023-01-29T05:51:20.029Z,573.00
2023-01-29T05:51:50.157Z,573.00
2023-01-29T05:52:20.157Z,572.00
2023-01-29T05:52:50.271Z,573.00
2023-01-29T05:53:20.271Z,573.00
2023-01-29T05:53:50.259Z,573.00
2023-01-29T05:54:20.261Z,575.00
2023-01-29T05:54:50.254Z,576.00
2023-01-29T05:55:20.249Z,577.00
2023-01-29T05:55:50.247Z,577.00
2023-01-29T05:56:20.239Z,577.00
2023-01-29T05:56:50.383Z,576.00
2023-01-29T05:57:20.351Z,576.00
2023-01-29T05:57:50.348Z,576.00
2023-01-29T05:58:20.351Z,576.00
2023-01-29T05:58:50.477Z,574.00
2023-01-29T05:59:20.480Z,574.00
2023-01-29T05:59:50.471Z,572.00
2023-01-29T06:00:20.468Z,571.00
2023-01-29T06:00:50.581Z,570.00
2023-01-29T06:01:20.581Z,571.00
2023-01-29T06:01:50.602Z,569.00
2023-01-29T06:02:20.572Z,569.00
2023-01-29T06:02:50.627Z,569.00
2023-01-29T06:03:20.658Z,568.00
2023-01-29T06:03:50.794Z,568.00
2023-01-29T06:04:20.816Z,567.00
2023-01-29T06:04:50.824Z,566.00
2023-01-29T06:05:20.814Z,567.00
2023-01-29T06:05:50.809Z,566.00
2023-01-29T06:06:20.931Z,567.00
2023-01-29T06:06:51.047Z,568.00
2023-01-29T06:07:21.156Z,568.00
2023-01-29T06:07:51.236Z,568.00
2023-01-29T06:08:21.326Z,568.00
2023-01-29T06:08:51.349Z,569.00
2023-01-29T06:09:21.427Z,570.00
2023-01-29T06:09:51.508Z,569.00
2023-01-29T06:10:21.599Z,569.00
2023-01-29T06:10:51.667Z,569.00
2023-01-29T06:11:21.764Z,568.00
2023-01-29T06:11:51.839Z,567.00
2023-01-29T06:12:21.915Z,567.00
2023-01-29T06:12:51.999Z,569.00
2023-01-29T06:13:23.634Z,569.00
2023-01-29T06:13:52.215Z,568.00
2023-01-29T06:14:22.301Z,568.00
2023-01-29T06:14:52.392Z,568.00
2023-01-29T06:15:22.468Z,568.00